sensor_id;sensor_type;location;lat;lon;timestamp;P1;durP1;ratioP1;P2;durP2;ratioP2
4057;SDS011;2044;48.692;9.020;2023-03-01T00:02:20;12.87;;;7.37;;
4057;SDS011;2044;48.692;9.020;2023-03-01T00:04:47;18.57;;;8.60;;
4057;SDS011;2044;48.692;9.020;2023-03-01T00:07:14;19.37;;;9.33;;
4057;SDS011;2044;48.692;9.020;2023-03-01T00:09:42;24.00;;;12.17;;
4057;SDS011;2044;48.692;9.020;2023-03-01T00:12:10;19.50;;;10.43;;
4057;SDS011;2044;48.692;9.020;2023-03-01T00:14:37;24.13;;;11.50;;
4057;SDS011;2044;48.692;9.020;2023-03-01T00:17:04;24.57;;;11.10;;
4057;SDS011;2044;48.692;9.020;2023-03-01T00:19:31;21.10;;;10.83;;
4057;SDS011;2044;48.692;9.020;2023-03-01T00:21:57;19.87;;;9.90;;
4057;SDS011;2044;48.692;9.020;2023-03-01T00:24:24;22.63;;;10.90;;
4057;SDS011;2044;48.692;9.020;2023-03-01T00:26:53;16.33;;;9.10;;
4057;SDS011;2044;48.692;9.020;2023-03-01T00:29:21;17.50;;;9.37;;
4057;SDS011;2044;48.692;9.020;2023-03-01T00:31:48;16.50;;;9.83;;
4057;SDS011;2044;48.692;9.020;2023-03-01T00:34:15;21.90;;;11.73;;
4057;SDS011;2044;48.692;9.020;2023-03-01T00:36:41;20.63;;;10.20;;
4057;SDS011;2044;48.692;9.020;2023-03-01T00:39:09;23.70;;;12.40;;
4057;SDS011;2044;48.692;9.020;2023-03-01T00:41:37;18.90;;;8.70;;
4057;SDS011;2044;48.692;9.020;2023-03-01T00:44:06;15.90;;;9.03;;
4057;SDS011;2044;48.692;9.020;2023-03-01T00:46:33;27.03;;;13.23;;
4057;SDS011;2044;48.692;9.020;2023-03-01T00:48:59;21.97;;;10.27;;
4057;SDS011;2044;48.692;9.020;2023-03-01T00:51:27;20.60;;;10.07;;
4057;SDS011;2044;48.692;9.020;2023-03-01T00:53:55;22.27;;;10.33;;
4057;SDS011;2044;48.692;9.020;2023-03-01T00:56:23;21.30;;;9.50;;
4057;SDS011;2044;48.692;9.020;2023-03-01T00:58:50;24.80;;;11.53;;
4057;SDS011;2044;48.692;9.020;2023-03-01T01:01:19;27.57;;;11.67;;
4057;SDS011;2044;48.692;9.020;2023-03-01T01:03:48;21.40;;;10.40;;
4057;SDS011;2044;48.692;9.020;2023-03-01T01:06:16;23.73;;;10.13;;
4057;SDS011;2044;48.692;9.020;2023-03-01T01:08:44;19.87;;;9.80;;
4057;SDS011;2044;48.692;9.020;2023-03-01T01:11:12;20.87;;;10.23;;
4057;SDS011;2044;48.692;9.020;2023-03-01T01:13:39;21.60;;;11.47;;
4057;SDS011;2044;48.692;9.020;2023-03-01T01:16:07;19.70;;;11.07;;
4057;SDS011;2044;48.692;9.020;2023-03-01T01:18:35;19.57;;;10.50;;
4057;SDS011;2044;48.692;9.020;2023-03-01T01:21:05;18.43;;;9.20;;
4057;SDS011;2044;48.692;9.020;2023-03-01T01:23:33;20.40;;;10.10;;
4057;SDS011;2044;48.692;9.020;2023-03-01T01:26:03;18.40;;;9.47;;
4057;SDS011;2044;48.692;9.020;2023-03-01T01:28:30;18.20;;;10.07;;
4057;SDS011;2044;48.692;9.020;2023-03-01T01:30:57;18.17;;;9.80;;
4057;SDS011;2044;48.692;9.020;2023-03-01T01:33:24;21.07;;;9.20;;
4057;SDS011;2044;48.692;9.020;2023-03-01T01:35:52;21.43;;;9.00;;
4057;SDS011;2044;48.692;9.020;2023-03-01T01:38:19;14.10;;;8.57;;
4057;SDS011;2044;48.692;9.020;2023-03-01T01:40:47;10.77;;;6.50;;
4057;SDS011;2044;48.692;9.020;2023-03-01T01:43:16;19.67;;;10.40;;
4057;SDS011;2044;48.692;9.020;2023-03-01T01:45:45;20.70;;;10.17;;
4057;SDS011;2044;48.692;9.020;2023-03-01T01:48:13;19.87;;;9.80;;
4057;SDS011;2044;48.692;9.020;2023-03-01T01:50:44;14.77;;;5.83;;
4057;SDS011;2044;48.692;9.020;2023-03-01T01:53:14;22.63;;;8.60;;
4057;SDS011;2044;48.692;9.020;2023-03-01T01:55:44;15.07;;;9.00;;
4057;SDS011;2044;48.692;9.020;2023-03-01T01:58:13;7.30;;;4.97;;
4057;SDS011;2044;48.692;9.020;2023-03-01T02:00:43;20.63;;;8.27;;
4057;SDS011;2044;48.692;9.020;2023-03-01T02:03:11;17.00;;;9.47;;
4057;SDS011;2044;48.692;9.020;2023-03-01T02:05:44;12.57;;;8.00;;
4057;SDS011;2044;48.692;9.020;2023-03-01T02:08:18;12.93;;;5.90;;
4057;SDS011;2044;48.692;9.020;2023-03-01T02:10:46;23.60;;;10.43;;
4057;SDS011;2044;48.692;9.020;2023-03-01T02:13:15;24.13;;;11.40;;
4057;SDS011;2044;48.692;9.020;2023-03-01T02:15:42;19.97;;;8.60;;
4057;SDS011;2044;48.692;9.020;2023-03-01T02:18:10;22.33;;;9.67;;
4057;SDS011;2044;48.692;9.020;2023-03-01T02:20:43;16.67;;;9.13;;
4057;SDS011;2044;48.692;9.020;2023-03-01T02:23:21;19.80;;;10.20;;
4057;SDS011;2044;48.692;9.020;2023-03-01T02:25:51;19.83;;;10.47;;
4057;SDS011;2044;48.692;9.020;2023-03-01T02:28:24;21.47;;;11.30;;
4057;SDS011;2044;48.692;9.020;2023-03-01T02:30:52;18.83;;;10.40;;
4057;SDS011;2044;48.692;9.020;2023-03-01T02:33:38;20.97;;;10.50;;
4057;SDS011;2044;48.692;9.020;2023-03-01T02:36:06;21.90;;;10.00;;
4057;SDS011;2044;48.692;9.020;2023-03-01T02:38:36;19.83;;;10.17;;
4057;SDS011;2044;48.692;9.020;2023-03-01T02:41:03;15.93;;;10.33;;
4057;SDS011;2044;48.692;9.020;2023-03-01T02:43:34;19.90;;;11.07;;
4057;SDS011;2044;48.692;9.020;2023-03-01T02:46:02;24.57;;;12.20;;
4057;SDS011;2044;48.692;9.020;2023-03-01T02:48:40;17.10;;;9.73;;
4057;SDS011;2044;48.692;9.020;2023-03-01T02:51:10;23.90;;;10.30;;
4057;SDS011;2044;48.692;9.020;2023-03-01T02:53:45;23.37;;;11.40;;
4057;SDS011;2044;48.692;9.020;2023-03-01T02:56:19;20.97;;;8.93;;
4057;SDS011;2044;48.692;9.020;2023-03-01T02:58:47;21.00;;;10.33;;
4057;SDS011;2044;48.692;9.020;2023-03-01T03:01:16;25.83;;;9.73;;
4057;SDS011;2044;48.692;9.020;2023-03-01T03:03:43;22.83;;;9.33;;
4057;SDS011;2044;48.692;9.020;2023-03-01T03:06:10;22.53;;;11.63;;
4057;SDS011;2044;48.692;9.020;2023-03-01T03:08:37;19.83;;;11.30;;
4057;SDS011;2044;48.692;9.020;2023-03-01T03:11:04;18.33;;;8.80;;
4057;SDS011;2044;48.692;9.020;2023-03-01T03:13:30;24.30;;;10.27;;
4057;SDS011;2044;48.692;9.020;2023-03-01T03:15:58;17.80;;;9.93;;
4057;SDS011;2044;48.692;9.020;2023-03-01T03:18:25;17.70;;;9.00;;
4057;SDS011;2044;48.692;9.020;2023-03-01T03:20:52;11.30;;;6.20;;
4057;SDS011;2044;48.692;9.020;2023-03-01T03:23:20;21.07;;;9.27;;
4057;SDS011;2044;48.692;9.020;2023-03-01T03:25:48;20.97;;;10.97;;
4057;SDS011;2044;48.692;9.020;2023-03-01T03:28:15;20.63;;;10.70;;
4057;SDS011;2044;48.692;9.020;2023-03-01T03:30:43;15.27;;;8.53;;
4057;SDS011;2044;48.692;9.020;2023-03-01T03:33:11;20.30;;;11.13;;
4057;SDS011;2044;48.692;9.020;2023-03-01T03:35:40;23.60;;;12.00;;
4057;SDS011;2044;48.692;9.020;2023-03-01T03:38:09;21.43;;;11.13;;
4057;SDS011;2044;48.692;9.020;2023-03-01T03:40:41;22.60;;;10.13;;
4057;SDS011;2044;48.692;9.020;2023-03-01T03:43:10;23.87;;;11.70;;
4057;SDS011;2044;48.692;9.020;2023-03-01T03:45:39;27.60;;;11.60;;
4057;SDS011;2044;48.692;9.020;2023-03-01T03:48:07;21.10;;;11.87;;
4057;SDS011;2044;48.692;9.020;2023-03-01T03:50:36;18.00;;;9.17;;
4057;SDS011;2044;48.692;9.020;2023-03-01T03:53:05;24.17;;;10.93;;
4057;SDS011;2044;48.692;9.020;2023-03-01T03:55:35;20.37;;;9.70;;
4057;SDS011;2044;48.692;9.020;2023-03-01T03:58:04;18.13;;;10.60;;
4057;SDS011;2044;48.692;9.020;2023-03-01T04:00:32;20.00;;;8.90;;
4057;SDS011;2044;48.692;9.020;2023-03-01T04:03:00;16.00;;;8.33;;
4057;SDS011;2044;48.692;9.020;2023-03-01T04:05:27;18.63;;;8.70;;
4057;SDS011;2044;48.692;9.020;2023-03-01T04:07:56;19.53;;;9.93;;
4057;SDS011;2044;48.692;9.020;2023-03-01T04:10:33;24.90;;;12.80;;
4057;SDS011;2044;48.692;9.020;2023-03-01T04:13:01;20.70;;;10.00;;
4057;SDS011;2044;48.692;9.020;2023-03-01T04:15:28;16.77;;;9.53;;
4057;SDS011;2044;48.692;9.020;2023-03-01T04:17:55;23.13;;;10.07;;
4057;SDS011;2044;48.692;9.020;2023-03-01T04:20:22;25.10;;;12.47;;
4057;SDS011;2044;48.692;9.020;2023-03-01T04:22:51;15.13;;;7.23;;
4057;SDS011;2044;48.692;9.020;2023-03-01T04:25:20;20.17;;;11.40;;
4057;SDS011;2044;48.692;9.020;2023-03-01T04:27:47;26.57;;;10.90;;
4057;SDS011;2044;48.692;9.020;2023-03-01T04:30:13;24.43;;;12.43;;
4057;SDS011;2044;48.692;9.020;2023-03-01T04:32:41;23.43;;;10.30;;
4057;SDS011;2044;48.692;9.020;2023-03-01T04:35:08;16.37;;;8.97;;
4057;SDS011;2044;48.692;9.020;2023-03-01T04:37:35;20.93;;;9.17;;
4057;SDS011;2044;48.692;9.020;2023-03-01T04:40:01;22.10;;;10.70;;
4057;SDS011;2044;48.692;9.020;2023-03-01T04:42:38;17.97;;;9.10;;
4057;SDS011;2044;48.692;9.020;2023-03-01T04:45:06;17.10;;;10.60;;
4057;SDS011;2044;48.692;9.020;2023-03-01T04:47:38;14.30;;;8.10;;
4057;SDS011;2044;48.692;9.020;2023-03-01T04:50:05;20.80;;;10.53;;
4057;SDS011;2044;48.692;9.020;2023-03-01T04:52:32;25.40;;;13.40;;
4057;SDS011;2044;48.692;9.020;2023-03-01T04:54:59;20.43;;;10.13;;
4057;SDS011;2044;48.692;9.020;2023-03-01T04:57:26;24.37;;;11.30;;
4057;SDS011;2044;48.692;9.020;2023-03-01T04:59:54;25.23;;;10.83;;
4057;SDS011;2044;48.692;9.020;2023-03-01T05:02:21;21.97;;;10.80;;
4057;SDS011;2044;48.692;9.020;2023-03-01T05:04:48;24.47;;;11.73;;
4057;SDS011;2044;48.692;9.020;2023-03-01T05:07:15;15.87;;;8.50;;
4057;SDS011;2044;48.692;9.020;2023-03-01T05:09:44;20.10;;;10.37;;
4057;SDS011;2044;48.692;9.020;2023-03-01T05:12:11;28.87;;;11.80;;
4057;SDS011;2044;48.692;9.020;2023-03-01T05:14:37;20.10;;;11.20;;
4057;SDS011;2044;48.692;9.020;2023-03-01T05:17:05;21.00;;;11.60;;
4057;SDS011;2044;48.692;9.020;2023-03-01T05:19:32;19.50;;;10.30;;
4057;SDS011;2044;48.692;9.020;2023-03-01T05:22:00;22.87;;;10.20;;
4057;SDS011;2044;48.692;9.020;2023-03-01T05:24:30;20.67;;;9.60;;
4057;SDS011;2044;48.692;9.020;2023-03-01T05:26:58;24.87;;;12.80;;
4057;SDS011;2044;48.692;9.020;2023-03-01T05:29:26;23.27;;;11.10;;
4057;SDS011;2044;48.692;9.020;2023-03-01T05:31:54;18.57;;;9.70;;
4057;SDS011;2044;48.692;9.020;2023-03-01T05:34:24;30.80;;;8.90;;
4057;SDS011;2044;48.692;9.020;2023-03-01T05:36:52;24.97;;;11.23;;
4057;SDS011;2044;48.692;9.020;2023-03-01T05:39:19;24.63;;;11.53;;
4057;SDS011;2044;48.692;9.020;2023-03-01T05:41:47;21.97;;;11.27;;
4057;SDS011;2044;48.692;9.020;2023-03-01T05:44:14;26.37;;;10.80;;
4057;SDS011;2044;48.692;9.020;2023-03-01T05:46:41;17.83;;;10.67;;
4057;SDS011;2044;48.692;9.020;2023-03-01T05:49:09;23.30;;;10.53;;
4057;SDS011;2044;48.692;9.020;2023-03-01T05:51:39;26.40;;;12.50;;
4057;SDS011;2044;48.692;9.020;2023-03-01T05:54:06;25.23;;;13.13;;
4057;SDS011;2044;48.692;9.020;2023-03-01T05:56:33;26.13;;;11.50;;
4057;SDS011;2044;48.692;9.020;2023-03-01T05:59:00;24.10;;;11.30;;
4057;SDS011;2044;48.692;9.020;2023-03-01T06:01:27;19.53;;;9.53;;
4057;SDS011;2044;48.692;9.020;2023-03-01T06:03:54;24.93;;;11.50;;
4057;SDS011;2044;48.692;9.020;2023-03-01T06:06:21;25.30;;;12.23;;
4057;SDS011;2044;48.692;9.020;2023-03-01T06:08:50;28.93;;;13.83;;
4057;SDS011;2044;48.692;9.020;2023-03-01T06:11:17;22.40;;;11.30;;
4057;SDS011;2044;48.692;9.020;2023-03-01T06:13:43;27.43;;;12.00;;
4057;SDS011;2044;48.692;9.020;2023-03-01T06:16:11;23.63;;;12.57;;
4057;SDS011;2044;48.692;9.020;2023-03-01T06:18:39;23.17;;;12.20;;
4057;SDS011;2044;48.692;9.020;2023-03-01T06:21:06;23.77;;;11.93;;
4057;SDS011;2044;48.692;9.020;2023-03-01T06:23:34;22.87;;;10.87;;
4057;SDS011;2044;48.692;9.020;2023-03-01T06:26:05;25.80;;;12.40;;
4057;SDS011;2044;48.692;9.020;2023-03-01T06:28:33;22.57;;;11.10;;
4057;SDS011;2044;48.692;9.020;2023-03-01T06:31:00;28.00;;;12.07;;
4057;SDS011;2044;48.692;9.020;2023-03-01T06:33:27;25.77;;;11.90;;
4057;SDS011;2044;48.692;9.020;2023-03-01T06:35:54;25.90;;;13.50;;
4057;SDS011;2044;48.692;9.020;2023-03-01T06:38:21;23.27;;;12.00;;
4057;SDS011;2044;48.692;9.020;2023-03-01T06:40:51;19.80;;;10.00;;
4057;SDS011;2044;48.692;9.020;2023-03-01T06:43:20;25.30;;;12.70;;
4057;SDS011;2044;48.692;9.020;2023-03-01T06:45:47;26.43;;;11.60;;
4057;SDS011;2044;48.692;9.020;2023-03-01T06:48:13;25.70;;;12.80;;
4057;SDS011;2044;48.692;9.020;2023-03-01T06:50:40;20.93;;;10.97;;
4057;SDS011;2044;48.692;9.020;2023-03-01T06:53:07;25.00;;;11.70;;
4057;SDS011;2044;48.692;9.020;2023-03-01T06:55:34;22.87;;;12.63;;
4057;SDS011;2044;48.692;9.020;2023-03-01T06:58:01;26.57;;;12.10;;
4057;SDS011;2044;48.692;9.020;2023-03-01T07:00:30;20.57;;;12.27;;
4057;SDS011;2044;48.692;9.020;2023-03-01T07:02:58;22.20;;;12.40;;
4057;SDS011;2044;48.692;9.020;2023-03-01T07:05:26;19.00;;;9.17;;
4057;SDS011;2044;48.692;9.020;2023-03-01T07:07:53;28.00;;;13.60;;
4057;SDS011;2044;48.692;9.020;2023-03-01T07:10:21;27.87;;;14.40;;
4057;SDS011;2044;48.692;9.020;2023-03-01T07:12:48;28.57;;;14.70;;
4057;SDS011;2044;48.692;9.020;2023-03-01T07:15:14;26.50;;;13.50;;
4057;SDS011;2044;48.692;9.020;2023-03-01T07:17:42;26.00;;;14.77;;
4057;SDS011;2044;48.692;9.020;2023-03-01T07:20:10;26.03;;;12.90;;
4057;SDS011;2044;48.692;9.020;2023-03-01T07:22:39;25.67;;;13.67;;
4057;SDS011;2044;48.692;9.020;2023-03-01T07:25:06;22.07;;;12.97;;
4057;SDS011;2044;48.692;9.020;2023-03-01T07:27:34;20.13;;;12.83;;
4057;SDS011;2044;48.692;9.020;2023-03-01T07:30:00;26.00;;;15.13;;
4057;SDS011;2044;48.692;9.020;2023-03-01T07:32:27;25.90;;;15.97;;
4057;SDS011;2044;48.692;9.020;2023-03-01T07:34:55;28.77;;;16.37;;
4057;SDS011;2044;48.692;9.020;2023-03-01T07:37:22;23.33;;;15.30;;
4057;SDS011;2044;48.692;9.020;2023-03-01T07:39:48;22.90;;;14.27;;
4057;SDS011;2044;48.692;9.020;2023-03-01T07:42:15;26.73;;;15.27;;
4057;SDS011;2044;48.692;9.020;2023-03-01T07:44:42;26.23;;;15.00;;
4057;SDS011;2044;48.692;9.020;2023-03-01T07:47:08;27.83;;;17.93;;
4057;SDS011;2044;48.692;9.020;2023-03-01T07:49:35;27.10;;;18.03;;
4057;SDS011;2044;48.692;9.020;2023-03-01T07:52:03;28.40;;;18.60;;
4057;SDS011;2044;48.692;9.020;2023-03-01T07:54:30;26.47;;;17.90;;
4057;SDS011;2044;48.692;9.020;2023-03-01T07:56:57;28.00;;;21.27;;
4057;SDS011;2044;48.692;9.020;2023-03-01T07:59:23;25.90;;;18.97;;
4057;SDS011;2044;48.692;9.020;2023-03-01T08:01:54;25.60;;;18.20;;
4057;SDS011;2044;48.692;9.020;2023-03-01T08:04:20;25.23;;;17.13;;
4057;SDS011;2044;48.692;9.020;2023-03-01T08:06:48;27.47;;;19.40;;
4057;SDS011;2044;48.692;9.020;2023-03-01T08:09:16;27.67;;;19.53;;
4057;SDS011;2044;48.692;9.020;2023-03-01T08:11:42;28.57;;;19.67;;
4057;SDS011;2044;48.692;9.020;2023-03-01T08:14:09;30.20;;;21.50;;
4057;SDS011;2044;48.692;9.020;2023-03-01T08:16:36;25.47;;;20.53;;
4057;SDS011;2044;48.692;9.020;2023-03-01T08:19:03;26.60;;;21.27;;
4057;SDS011;2044;48.692;9.020;2023-03-01T08:21:30;25.93;;;19.30;;
4057;SDS011;2044;48.692;9.020;2023-03-01T08:23:59;24.97;;;20.53;;
4057;SDS011;2044;48.692;9.020;2023-03-01T08:26:27;31.73;;;23.53;;
4057;SDS011;2044;48.692;9.020;2023-03-01T08:28:54;29.23;;;22.70;;
4057;SDS011;2044;48.692;9.020;2023-03-01T08:31:22;26.07;;;22.50;;
4057;SDS011;2044;48.692;9.020;2023-03-01T08:33:51;31.13;;;23.70;;
4057;SDS011;2044;48.692;9.020;2023-03-01T08:36:21;29.27;;;22.10;;
4057;SDS011;2044;48.692;9.020;2023-03-01T08:38:48;29.20;;;20.63;;
4057;SDS011;2044;48.692;9.020;2023-03-01T08:41:15;30.60;;;21.30;;
4057;SDS011;2044;48.692;9.020;2023-03-01T08:43:44;29.93;;;20.80;;
4057;SDS011;2044;48.692;9.020;2023-03-01T08:46:11;34.27;;;23.07;;
4057;SDS011;2044;48.692;9.020;2023-03-01T08:48:38;24.20;;;19.37;;
4057;SDS011;2044;48.692;9.020;2023-03-01T08:51:08;32.03;;;24.90;;
4057;SDS011;2044;48.692;9.020;2023-03-01T08:53:35;28.57;;;25.20;;
4057;SDS011;2044;48.692;9.020;2023-03-01T08:56:02;23.67;;;19.67;;
4057;SDS011;2044;48.692;9.020;2023-03-01T08:58:29;29.57;;;19.40;;
4057;SDS011;2044;48.692;9.020;2023-03-01T09:00:57;31.07;;;24.87;;
4057;SDS011;2044;48.692;9.020;2023-03-01T09:03:24;27.33;;;20.93;;
4057;SDS011;2044;48.692;9.020;2023-03-01T09:05:51;28.50;;;22.27;;
4057;SDS011;2044;48.692;9.020;2023-03-01T09:08:18;30.57;;;21.07;;
4057;SDS011;2044;48.692;9.020;2023-03-01T09:10:45;29.53;;;20.50;;
4057;SDS011;2044;48.692;9.020;2023-03-01T09:13:12;35.87;;;25.33;;
4057;SDS011;2044;48.692;9.020;2023-03-01T09:15:39;30.87;;;20.50;;
4057;SDS011;2044;48.692;9.020;2023-03-01T09:18:07;32.23;;;22.67;;
4057;SDS011;2044;48.692;9.020;2023-03-01T09:20:33;29.70;;;22.00;;
4057;SDS011;2044;48.692;9.020;2023-03-01T09:23:00;33.47;;;25.83;;
4057;SDS011;2044;48.692;9.020;2023-03-01T09:25:27;28.63;;;23.20;;
4057;SDS011;2044;48.692;9.020;2023-03-01T09:27:54;29.50;;;21.40;;
4057;SDS011;2044;48.692;9.020;2023-03-01T09:30:21;27.57;;;23.10;;
4057;SDS011;2044;48.692;9.020;2023-03-01T09:32:49;26.47;;;18.90;;
4057;SDS011;2044;48.692;9.020;2023-03-01T09:35:17;32.30;;;20.73;;
4057;SDS011;2044;48.692;9.020;2023-03-01T09:37:45;29.23;;;19.83;;
4057;SDS011;2044;48.692;9.020;2023-03-01T09:40:12;30.63;;;24.23;;
4057;SDS011;2044;48.692;9.020;2023-03-01T09:42:46;28.17;;;19.33;;
4057;SDS011;2044;48.692;9.020;2023-03-01T09:45:24;30.20;;;24.53;;
4057;SDS011;2044;48.692;9.020;2023-03-01T09:47:54;27.53;;;20.60;;
4057;SDS011;2044;48.692;9.020;2023-03-01T09:50:24;25.40;;;19.73;;
4057;SDS011;2044;48.692;9.020;2023-03-01T09:52:54;28.77;;;22.87;;
4057;SDS011;2044;48.692;9.020;2023-03-01T09:55:28;28.63;;;23.50;;
4057;SDS011;2044;48.692;9.020;2023-03-01T09:58:00;31.20;;;21.97;;
4057;SDS011;2044;48.692;9.020;2023-03-01T10:00:34;23.20;;;16.93;;
4057;SDS011;2044;48.692;9.020;2023-03-01T10:03:08;27.53;;;18.10;;
4057;SDS011;2044;48.692;9.020;2023-03-01T10:05:43;23.07;;;19.90;;
4057;SDS011;2044;48.692;9.020;2023-03-01T10:08:23;32.30;;;24.80;;
4057;SDS011;2044;48.692;9.020;2023-03-01T10:10:54;28.80;;;24.03;;
4057;SDS011;2044;48.692;9.020;2023-03-01T10:13:21;28.93;;;22.50;;
4057;SDS011;2044;48.692;9.020;2023-03-01T10:15:53;31.73;;;23.40;;
4057;SDS011;2044;48.692;9.020;2023-03-01T10:18:23;29.43;;;23.10;;
4057;SDS011;2044;48.692;9.020;2023-03-01T10:20:55;31.30;;;20.43;;
4057;SDS011;2044;48.692;9.020;2023-03-01T10:23:24;34.10;;;21.20;;
4057;SDS011;2044;48.692;9.020;2023-03-01T10:25:56;27.90;;;22.20;;
4057;SDS011;2044;48.692;9.020;2023-03-01T10:28:41;31.57;;;27.20;;
4057;SDS011;2044;48.692;9.020;2023-03-01T10:31:15;28.20;;;24.03;;
4057;SDS011;2044;48.692;9.020;2023-03-01T10:33:47;27.97;;;24.70;;
4057;SDS011;2044;48.692;9.020;2023-03-01T10:36:19;29.30;;;23.53;;
4057;SDS011;2044;48.692;9.020;2023-03-01T10:38:47;25.97;;;21.20;;
4057;SDS011;2044;48.692;9.020;2023-03-01T10:41:17;23.97;;;19.43;;
4057;SDS011;2044;48.692;9.020;2023-03-01T10:43:45;27.43;;;23.33;;
4057;SDS011;2044;48.692;9.020;2023-03-01T10:46:22;30.23;;;24.50;;
4057;SDS011;2044;48.692;9.020;2023-03-01T10:51:43;31.90;;;25.60;;
4057;SDS011;2044;48.692;9.020;2023-03-01T10:54:18;29.60;;;24.17;;
4057;SDS011;2044;48.692;9.020;2023-03-01T10:56:48;28.83;;;20.33;;
4057;SDS011;2044;48.692;9.020;2023-03-01T10:59:26;26.30;;;18.80;;
4057;SDS011;2044;48.692;9.020;2023-03-01T11:02:07;28.23;;;21.30;;
4057;SDS011;2044;48.692;9.020;2023-03-01T11:04:55;24.03;;;19.60;;
4057;SDS011;2044;48.692;9.020;2023-03-01T11:07:25;30.20;;;20.00;;
4057;SDS011;2044;48.692;9.020;2023-03-01T11:09:51;27.20;;;20.80;;
4057;SDS011;2044;48.692;9.020;2023-03-01T11:12:19;28.60;;;21.80;;
4057;SDS011;2044;48.692;9.020;2023-03-01T11:14:47;29.10;;;25.00;;
4057;SDS011;2044;48.692;9.020;2023-03-01T11:17:15;25.87;;;20.17;;
4057;SDS011;2044;48.692;9.020;2023-03-01T11:19:52;29.00;;;22.50;;
4057;SDS011;2044;48.692;9.020;2023-03-01T11:22:29;30.93;;;23.37;;
4057;SDS011;2044;48.692;9.020;2023-03-01T11:24:58;27.17;;;22.60;;
4057;SDS011;2044;48.692;9.020;2023-03-01T11:27:27;26.20;;;23.40;;
4057;SDS011;2044;48.692;9.020;2023-03-01T11:29:57;28.47;;;20.30;;
4057;SDS011;2044;48.692;9.020;2023-03-01T11:32:28;30.37;;;25.20;;
4057;SDS011;2044;48.692;9.020;2023-03-01T11:35:02;23.97;;;19.57;;
4057;SDS011;2044;48.692;9.020;2023-03-01T11:37:37;18.00;;;16.10;;
4057;SDS011;2044;48.692;9.020;2023-03-01T11:40:11;28.50;;;19.30;;
4057;SDS011;2044;48.692;9.020;2023-03-01T11:42:53;27.70;;;19.03;;
4057;SDS011;2044;48.692;9.020;2023-03-01T11:45:28;23.87;;;21.10;;
4057;SDS011;2044;48.692;9.020;2023-03-01T11:48:10;29.50;;;23.07;;
4057;SDS011;2044;48.692;9.020;2023-03-01T11:50:52;28.10;;;22.33;;
4057;SDS011;2044;48.692;9.020;2023-03-01T11:53:30;23.87;;;19.60;;
4057;SDS011;2044;48.692;9.020;2023-03-01T11:56:15;27.57;;;22.43;;
4057;SDS011;2044;48.692;9.020;2023-03-01T12:01:59;26.67;;;19.37;;
4057;SDS011;2044;48.692;9.020;2023-03-01T12:04:51;25.10;;;19.90;;
4057;SDS011;2044;48.692;9.020;2023-03-01T12:07:30;18.07;;;16.17;;
4057;SDS011;2044;48.692;9.020;2023-03-01T12:10:20;27.57;;;21.60;;
4057;SDS011;2044;48.692;9.020;2023-03-01T12:12:55;26.90;;;20.50;;
4057;SDS011;2044;48.692;9.020;2023-03-01T12:15:39;25.40;;;19.63;;
4057;SDS011;2044;48.692;9.020;2023-03-01T12:18:21;27.57;;;20.60;;
4057;SDS011;2044;48.692;9.020;2023-03-01T12:21:09;23.33;;;18.90;;
4057;SDS011;2044;48.692;9.020;2023-03-01T12:23:49;22.57;;;18.60;;
4057;SDS011;2044;48.692;9.020;2023-03-01T12:26:30;24.80;;;21.13;;
4057;SDS011;2044;48.692;9.020;2023-03-01T12:29:08;27.80;;;21.83;;
4057;SDS011;2044;48.692;9.020;2023-03-01T12:34:47;22.97;;;20.17;;
4057;SDS011;2044;48.692;9.020;2023-03-01T12:37:42;27.80;;;23.67;;
4057;SDS011;2044;48.692;9.020;2023-03-01T12:40:22;19.60;;;16.33;;
4057;SDS011;2044;48.692;9.020;2023-03-01T12:43:04;25.10;;;19.87;;
4057;SDS011;2044;48.692;9.020;2023-03-01T12:45:42;23.60;;;18.60;;
4057;SDS011;2044;48.692;9.020;2023-03-01T12:48:19;28.03;;;20.83;;
4057;SDS011;2044;48.692;9.020;2023-03-01T12:50:57;20.77;;;18.60;;
4057;SDS011;2044;48.692;9.020;2023-03-01T12:53:28;23.60;;;21.10;;
4057;SDS011;2044;48.692;9.020;2023-03-01T12:55:59;25.07;;;20.77;;
4057;SDS011;2044;48.692;9.020;2023-03-01T12:58:29;26.50;;;18.90;;
4057;SDS011;2044;48.692;9.020;2023-03-01T13:01:08;21.00;;;18.80;;
4057;SDS011;2044;48.692;9.020;2023-03-01T13:03:48;24.90;;;18.10;;
4057;SDS011;2044;48.692;9.020;2023-03-01T13:06:29;26.53;;;22.53;;
4057;SDS011;2044;48.692;9.020;2023-03-01T13:09:03;19.30;;;17.40;;
4057;SDS011;2044;48.692;9.020;2023-03-01T13:11:35;25.10;;;19.97;;
4057;SDS011;2044;48.692;9.020;2023-03-01T13:19:56;21.00;;;18.50;;
4057;SDS011;2044;48.692;9.020;2023-03-01T13:22:29;23.10;;;20.60;;
4057;SDS011;2044;48.692;9.020;2023-03-01T13:25:01;18.60;;;15.00;;
4057;SDS011;2044;48.692;9.020;2023-03-01T13:27:37;27.13;;;18.03;;
4057;SDS011;2044;48.692;9.020;2023-03-01T13:30:12;21.93;;;19.27;;
4057;SDS011;2044;48.692;9.020;2023-03-01T13:36:45;20.67;;;18.50;;
4057;SDS011;2044;48.692;9.020;2023-03-01T13:39:26;18.70;;;16.77;;
4057;SDS011;2044;48.692;9.020;2023-03-01T13:41:56;18.53;;;16.07;;
4057;SDS011;2044;48.692;9.020;2023-03-01T13:44:25;22.70;;;20.43;;
4057;SDS011;2044;48.692;9.020;2023-03-01T13:46:57;22.40;;;19.93;;
4057;SDS011;2044;48.692;9.020;2023-03-01T13:49:41;26.37;;;19.50;;
4057;SDS011;2044;48.692;9.020;2023-03-01T13:52:20;23.17;;;20.70;;
4057;SDS011;2044;48.692;9.020;2023-03-01T13:55:06;23.60;;;20.80;;
4057;SDS011;2044;48.692;9.020;2023-03-01T13:57:43;24.97;;;19.17;;
4057;SDS011;2044;48.692;9.020;2023-03-01T14:00:29;25.47;;;19.00;;
4057;SDS011;2044;48.692;9.020;2023-03-01T14:03:08;23.53;;;19.00;;
4057;SDS011;2044;48.692;9.020;2023-03-01T14:05:37;22.07;;;18.97;;
4057;SDS011;2044;48.692;9.020;2023-03-01T14:08:05;20.07;;;17.97;;
4057;SDS011;2044;48.692;9.020;2023-03-01T14:10:49;19.77;;;15.80;;
4057;SDS011;2044;48.692;9.020;2023-03-01T14:13:25;29.77;;;17.60;;
4057;SDS011;2044;48.692;9.020;2023-03-01T14:16:12;22.37;;;16.90;;
4057;SDS011;2044;48.692;9.020;2023-03-01T14:18:51;18.07;;;15.10;;
4057;SDS011;2044;48.692;9.020;2023-03-01T14:21:29;19.27;;;15.90;;
4057;SDS011;2044;48.692;9.020;2023-03-01T14:23:56;27.03;;;17.40;;
4057;SDS011;2044;48.692;9.020;2023-03-01T14:26:24;21.33;;;17.90;;
4057;SDS011;2044;48.692;9.020;2023-03-01T14:28:51;27.83;;;21.13;;
4057;SDS011;2044;48.692;9.020;2023-03-01T14:31:34;25.00;;;18.60;;
4057;SDS011;2044;48.692;9.020;2023-03-01T14:34:05;25.73;;;19.33;;
4057;SDS011;2044;48.692;9.020;2023-03-01T14:36:32;27.03;;;18.17;;
4057;SDS011;2044;48.692;9.020;2023-03-01T14:39:00;24.03;;;18.50;;
4057;SDS011;2044;48.692;9.020;2023-03-01T14:41:31;22.50;;;18.63;;
4057;SDS011;2044;48.692;9.020;2023-03-01T14:44:01;25.23;;;18.27;;
4057;SDS011;2044;48.692;9.020;2023-03-01T14:46:31;25.90;;;20.80;;
4057;SDS011;2044;48.692;9.020;2023-03-01T14:49:02;19.87;;;17.67;;
4057;SDS011;2044;48.692;9.020;2023-03-01T14:51:35;24.20;;;18.27;;
4057;SDS011;2044;48.692;9.020;2023-03-01T14:54:04;23.93;;;19.23;;
4057;SDS011;2044;48.692;9.020;2023-03-01T14:56:44;26.23;;;18.63;;
4057;SDS011;2044;48.692;9.020;2023-03-01T14:59:12;27.20;;;19.07;;
4057;SDS011;2044;48.692;9.020;2023-03-01T15:01:39;19.70;;;16.63;;
4057;SDS011;2044;48.692;9.020;2023-03-01T15:04:10;25.87;;;17.90;;
4057;SDS011;2044;48.692;9.020;2023-03-01T15:06:38;24.73;;;17.40;;
4057;SDS011;2044;48.692;9.020;2023-03-01T15:09:06;26.10;;;17.47;;
4057;SDS011;2044;48.692;9.020;2023-03-01T15:11:39;31.80;;;20.60;;
4057;SDS011;2044;48.692;9.020;2023-03-01T15:17:14;22.10;;;16.73;;
4057;SDS011;2044;48.692;9.020;2023-03-01T15:19:51;22.83;;;17.37;;
4057;SDS011;2044;48.692;9.020;2023-03-01T15:22:17;23.17;;;18.50;;
4057;SDS011;2044;48.692;9.020;2023-03-01T15:24:52;23.77;;;16.23;;
4057;SDS011;2044;48.692;9.020;2023-03-01T15:27:19;25.70;;;18.57;;
4057;SDS011;2044;48.692;9.020;2023-03-01T15:29:49;26.37;;;18.70;;
4057;SDS011;2044;48.692;9.020;2023-03-01T15:32:25;21.27;;;15.17;;